Time;durP1;ratioP1;P1;durP2;ratioP2;P2;SDS_P1;SDS_P2;PMS_P1;PMS_P2;Temp;Humidity;BMP_temperature;BMP_pressure;BME280_temperature;BME280_humidity;BME280_pressure;Samples;Min_cycle;Max_cycle;Signal;HPM_P1;HPM_P2
2022/04/09 00:02:50;;;;;;;5.82;1.55;;;;;;;3.92;100.00;99593.03;10175978;28;20121;-65
2022/04/09 00:07:47;;;;;;;6.75;1.83;;;;;;;3.85;100.00;99598.84;10187348;28;20061;-66
2022/04/09 00:12:45;;;;;;;10.35;1.50;;;;;;;3.66;100.00;99600.84;10191603;28;20084;-66
2022/04/09 00:17:44;;;;;;;7.50;1.55;;;;;;;3.62;100.00;99592.53;10186472;28;20085;-66
2022/04/09 00:22:40;;;;;;;10.15;1.33;;;;;;;3.53;100.00;99597.84;10181851;28;20042;-66
2022/04/09 00:27:38;;;;;;;6.53;0.93;;;;;;;3.47;100.00;99603.63;10188630;28;20054;-65
2022/04/09 00:32:35;;;;;;;7.05;1.20;;;;;;;3.39;100.00;99605.13;10191826;28;20038;-65
2022/04/09 00:37:32;;;;;;;10.63;1.40;;;;;;;3.42;100.00;99609.91;10188060;28;20132;-66
2022/04/09 00:42:28;;;;;;;6.50;1.08;;;;;;;3.31;100.00;99613.88;10192414;28;20042;-65
2022/04/09 00:47:24;;;;;;;9.75;1.65;;;;;;;3.36;100.00;99624.59;10187915;28;20069;-66
2022/04/09 00:52:24;;;;;;;8.70;1.10;;;;;;;3.34;100.00;99632.19;10191468;28;20073;-66
2022/04/09 00:57:22;;;;;;;6.22;1.17;;;;;;;3.24;100.00;99637.78;10177333;28;20066;-66
2022/04/09 01:02:18;;;;;;;5.50;0.98;;;;;;;3.31;100.00;99636.31;10191199;28;20042;-66
2022/04/09 01:07:15;;;;;;;11.85;1.10;;;;;;;3.29;100.00;99651.22;10184597;28;20081;-66
2022/04/09 01:12:15;;;;;;;7.60;1.92;;;;;;;3.19;100.00;99664.88;10189229;28;20045;-65
2022/04/09 01:17:12;;;;;;;9.48;1.73;;;;;;;3.23;100.00;99674.00;10187698;28;20050;-66
2022/04/09 01:22:08;;;;;;;11.30;1.58;;;;;;;3.29;100.00;99675.53;10178498;28;20081;-66
2022/04/09 01:27:05;;;;;;;13.65;2.17;;;;;;;3.26;100.00;99686.94;10186020;28;20046;-66
2022/04/09 01:32:01;;;;;;;9.30;1.10;;;;;;;3.35;100.00;99704.06;10185117;28;20560;-68
2022/04/09 01:36:58;;;;;;;8.73;2.72;;;;;;;3.27;100.00;99708.25;10186574;28;20631;-65
2022/04/09 01:41:54;;;;;;;7.78;1.42;;;;;;;3.20;100.00;99707.00;10188183;28;20080;-66
2022/04/09 01:46:51;;;;;;;9.30;1.40;;;;;;;3.07;100.00;99706.66;10186587;28;20413;-66
2022/04/09 01:51:49;;;;;;;6.00;2.17;;;;;;;3.00;100.00;99718.91;10189510;28;20053;-66
2022/04/09 01:56:46;;;;;;;5.03;1.65;;;;;;;2.97;100.00;99714.91;10180368;28;20053;-66
2022/04/09 02:01:43;;;;;;;7.40;1.10;;;;;;;2.96;100.00;99729.47;10176369;28;20065;-66
2022/04/09 02:06:40;;;;;;;7.20;1.40;;;;;;;2.90;100.00;99734.16;10189068;28;20081;-66
2022/04/09 02:11:36;;;;;;;6.10;1.13;;;;;;;2.89;100.00;99745.25;10177331;28;20046;-66
2022/04/09 02:16:33;;;;;;;12.48;1.77;;;;;;;2.91;100.00;99737.66;10187565;28;20045;-66
2022/04/09 02:21:29;;;;;;;7.35;1.13;;;;;;;2.87;100.00;99759.03;10183117;28;20145;-66
2022/04/09 02:26:26;;;;;;;6.03;1.08;;;;;;;2.83;100.00;99762.59;10186707;28;20041;-66
2022/04/09 02:31:22;;;;;;;9.18;1.70;;;;;;;2.80;100.00;99760.47;10188450;28;20049;-65
2022/04/09 02:36:20;;;;;;;15.45;1.38;;;;;;;2.72;100.00;99775.44;10184221;28;20053;-66
2022/04/09 02:41:17;;;;;;;11.70;1.92;;;;;;;2.81;100.00;99780.97;10187077;28;20081;-65
2022/04/09 02:46:13;;;;;;;4.82;1.15;;;;;;;2.84;100.00;99783.13;10187031;28;20120;-66
2022/04/09 02:51:12;;;;;;;12.13;1.23;;;;;;;2.76;100.00;99789.94;10183918;28;20069;-66
2022/04/09 02:56:08;;;;;;;6.40;1.38;;;;;;;2.88;100.00;99786.84;10182115;28;20570;-65
2022/04/09 03:01:06;;;;;;;6.85;1.48;;;;;;;2.77;100.00;99801.56;10176920;28;20073;-66
2022/04/09 03:06:02;;;;;;;5.78;1.15;;;;;;;2.77;100.00;99812.34;10185846;28;20053;-66
2022/04/09 03:10:59;;;;;;;6.30;1.30;;;;;;;2.76;100.00;99810.72;10183970;28;20670;-65
2022/04/09 03:15:55;;;;;;;7.47;1.83;;;;;;;2.70;100.00;99823.50;10187302;28;20077;-65
2022/04/09 03:20:52;;;;;;;7.40;1.50;;;;;;;2.80;100.00;99825.28;10171072;28;20057;-66
2022/04/09 03:25:48;;;;;;;7.70;1.25;;;;;;;2.65;100.00;99824.34;10184317;28;20108;-66
2022/04/09 03:30:45;;;;;;;9.05;1.20;;;;;;;2.80;100.00;99830.69;10183427;28;20077;-65
2022/04/09 03:35:42;;;;;;;8.48;1.25;;;;;;;2.74;100.00;99844.22;10185887;28;20045;-66
2022/04/09 03:40:39;;;;;;;8.05;1.38;;;;;;;2.73;100.00;99848.00;10186309;28;20129;-66
2022/04/09 03:45:35;;;;;;;9.75;1.55;;;;;;;2.79;100.00;99851.47;10180265;28;20045;-66
2022/04/09 03:50:32;;;;;;;7.60;1.38;;;;;;;2.78;100.00;99851.75;10188012;28;20069;-66
2022/04/09 03:55:29;;;;;;;6.72;1.67;;;;;;;2.68;100.00;99864.25;10182673;28;20100;-66
2022/04/09 04:00:26;;;;;;;7.20;1.45;;;;;;;2.56;100.00;99861.16;10176282;28;20047;-66
2022/04/09 04:05:22;;;;;;;6.00;1.52;;;;;;;2.53;100.00;99872.53;10178561;28;20081;-66
2022/04/09 04:10:19;;;;;;;9.52;2.08;;;;;;;2.57;100.00;99878.94;10180153;28;20078;-66
2022/04/09 04:15:15;;;;;;;19.10;2.65;;;;;;;2.59;100.00;99881.38;10186459;28;20049;-65
2022/04/09 04:20:12;;;;;;;17.00;3.78;;;;;;;2.58;100.00;99901.38;10183320;28;20081;-66
2022/04/09 04:25:09;;;;;;;14.27;1.88;;;;;;;2.57;100.00;99900.53;10182828;28;20050;-66
2022/04/09 04:30:06;;;;;;;9.35;2.63;;;;;;;2.54;100.00;99914.59;10182387;28;20053;-65
2022/04/09 04:35:03;;;;;;;13.65;2.55;;;;;;;2.61;100.00;99916.97;10185265;28;20046;-65
2022/04/09 04:40:00;;;;;;;13.57;2.60;;;;;;;2.55;100.00;99918.91;10180313;28;20100;-66
2022/04/09 04:44:56;;;;;;;13.95;2.20;;;;;;;2.63;100.00;99926.41;10181354;28;20085;-66
2022/04/09 04:49:52;;;;;;;11.38;2.30;;;;;;;2.54;100.00;99933.50;10184239;28;20066;-66
2022/04/09 04:54:49;;;;;;;10.35;2.85;;;;;;;2.53;100.00;99942.69;10163678;28;20189;-66
2022/04/09 04:59:45;;;;;;;11.88;2.55;;;;;;;2.59;100.00;99941.53;10191494;28;20061;-66
2022/04/09 05:04:46;;;;;;;13.20;3.20;;;;;;;2.57;100.00;99949.13;10189770;28;20104;-67
2022/04/09 05:09:43;;;;;;;9.98;2.33;;;;;;;2.58;100.00;99956.13;10190975;28;20089;-66
2022/04/09 05:14:39;;;;;;;9.32;2.25;;;;;;;2.66;100.00;99969.00;10175059;28;20560;-66
2022/04/09 05:19:36;;;;;;;15.35;3.28;;;;;;;2.74;100.00;99981.91;10188970;28;20073;-65
2022/04/09 05:24:32;;;;;;;13.35;3.13;;;;;;;2.84;100.00;99980.22;10190826;28;20081;-65
2022/04/09 05:29:29;;;;;;;13.95;2.35;;;;;;;2.81;100.00;99980.75;10172399;28;20132;-66
2022/04/09 05:34:25;;;;;;;7.97;2.20;;;;;;;2.84;100.00;99991.81;10191396;28;20502;-66
2022/04/09 05:39:22;;;;;;;13.77;3.28;;;;;;;2.90;100.00;99990.69;10184651;28;20569;-65
2022/04/09 05:44:24;;;;;;;11.90;2.25;;;;;;;2.89;100.00;100001.75;10189298;28;20045;-66
2022/04/09 05:49:20;;;;;;;10.95;2.25;;;;;;;2.90;100.00;100006.06;10185899;28;20081;-67
2022/04/09 05:54:17;;;;;;;7.65;2.08;;;;;;;2.91;100.00;100008.47;10181715;28;20079;-66
2022/04/09 05:59:13;;;;;;;14.93;3.97;;;;;;;2.93;100.00;100021.72;10190065;28;20042;-66
2022/04/09 06:04:19;;;;;;;13.50;2.60;;;;;;;3.04;100.00;100033.19;10171109;28;20409;-66
2022/04/09 06:09:16;;;;;;;14.05;2.35;;;;;;;3.11;100.00;100026.41;10188604;28;20054;-66
2022/04/09 06:14:13;;;;;;;9.32;2.20;;;;;;;3.12;100.00;100041.50;10181661;28;20077;-66
2022/04/09 06:19:10;;;;;;;10.05;1.80;;;;;;;3.26;100.00;100057.06;10170570;28;20108;-65
2022/04/09 06:24:06;;;;;;;8.50;2.50;;;;;;;3.30;100.00;100047.28;10188179;28;20133;-65
2022/04/09 06:29:04;;;;;;;6.47;1.60;;;;;;;3.28;100.00;100076.50;10168578;28;20104;-66
2022/04/09 06:34:00;;;;;;;9.73;1.60;;;;;;;3.16;100.00;100069.56;10188290;28;20165;-66
2022/04/09 06:38:56;;;;;;;6.13;1.88;;;;;;;3.18;100.00;100088.22;10184725;28;20111;-66
2022/04/09 06:43:53;;;;;;;9.55;1.63;;;;;;;3.31;100.00;100086.72;10187253;28;20046;-65
2022/04/09 06:48:50;;;;;;;12.02;2.05;;;;;;;3.54;100.00;100096.75;10188342;28;20116;-65
2022/04/09 06:53:47;;;;;;;10.95;1.63;;;;;;;3.75;100.00;100096.56;10170908;28;20081;-65
2022/04/09 06:58:43;;;;;;;12.85;1.70;;;;;;;3.80;100.00;100115.41;10188354;28;20081;-66
2022/04/09 07:03:40;;;;;;;15.52;2.33;;;;;;;3.68;100.00;100133.94;10178534;28;20460;-65
2022/04/09 07:08:36;;;;;;;14.02;2.08;;;;;;;3.81;100.00;100127.88;10187146;28;20521;-65
2022/04/09 07:13:33;;;;;;;13.00;2.60;;;;;;;4.02;100.00;100127.63;10185082;28;20498;-65
2022/04/09 07:18:29;;;;;;;9.38;2.17;;;;;;;4.12;100.00;100132.91;10181888;28;20132;-65
2022/04/09 07:23:25;;;;;;;9.50;2.50;;;;;;;3.99;100.00;100148.75;10169098;28;20108;-65
2022/04/09 07:28:22;;;;;;;11.35;2.40;;;;;;;3.80;100.00;100181.13;10186114;28;20144;-65
2022/04/09 07:33:18;;;;;;;5.38;1.60;;;;;;;3.68;100.00;100171.78;10186410;28;20038;-66
2022/04/09 07:38:15;;;;;;;7.45;1.77;;;;;;;3.47;100.00;100193.59;10177562;28;20128;-66
2022/04/09 07:43:11;;;;;;;4.07;1.38;;;;;;;3.15;100.00;100173.28;10186568;28;20671;-66
2022/04/09 07:48:11;;;;;;;7.18;1.65;;;;;;;3.35;100.00;100190.47;10166616;28;20470;-66
2022/04/09 07:53:09;;;;;;;9.02;1.90;;;;;;;3.49;100.00;100175.19;10186544;28;20120;-66
2022/04/09 07:58:06;;;;;;;6.18;1.98;;;;;;;3.73;100.00;100185.25;10184676;28;20488;-66
2022/04/09 08:03:03;;;;;;;6.72;1.58;;;;;;;3.87;100.00;100191.59;10186146;28;20132;-66
2022/04/09 08:08:01;;;;;;;6.47;2.08;;;;;;;4.04;100.00;100207.41;10166472;28;20042;-66
2022/04/09 08:12:57;;;;;;;7.20;1.88;;;;;;;4.32;100.00;100205.75;10186991;28;20492;-66
2022/04/09 08:17:56;;;;;;;7.03;1.42;;;;;;;4.28;100.00;100196.59;10183291;28;20053;-65
2022/04/09 08:23:12;;;;;;;11.52;1.80;;;;;;;4.61;100.00;100188.59;10185988;28;20041;-65
2022/04/09 08:28:09;;;;;;;5.68;1.50;;;;;;;4.95;100.00;100204.66;10187304;28;20049;-66
2022/04/09 08:33:07;;;;;;;9.50;1.58;;;;;;;4.74;100.00;100204.16;10187655;28;20133;-66
2022/04/09 08:38:03;;;;;;;8.95;1.77;;;;;;;4.74;100.00;100204.16;10191844;28;20568;-66
2022/04/09 08:43:00;;;;;;;9.90;1.15;;;;;;;4.67;100.00;100225.38;10167307;28;20038;-65
2022/04/09 08:47:57;;;;;;;3.72;0.65;;;;;;;4.69;100.00;100212.34;10191279;28;20081;-65
2022/04/09 08:52:54;;;;;;;4.03;0.85;;;;;;;4.76;100.00;100212.78;10165134;28;20145;-66
2022/04/09 08:57:50;;;;;;;5.32;0.98;;;;;;;4.80;100.00;100213.81;10189743;28;20092;-65
2022/04/09 09:02:51;;;;;;;5.95;0.70;;;;;;;4.98;100.00;100219.53;10193685;28;20148;-66
2022/04/09 09:07:47;;;;;;;5.65;0.90;;;;;;;5.19;100.00;100214.63;10188957;28;20077;-65
2022/04/09 09:12:55;;;;;;;3.92;1.20;;;;;;;5.34;100.00;100243.41;10191223;28;20128;-66
2022/04/09 09:17:59;;;;;;;10.82;1.35;;;;;;;5.59;100.00;100218.63;10183890;28;20689;-65
2022/04/09 09:22:55;;;;;;;7.10;0.95;;;;;;;5.82;100.00;100216.03;10188580;28;20939;-66
2022/04/09 09:27:57;;;;;;;8.73;1.30;;;;;;;5.59;100.00;100234.91;10187848;28;20050;-65
2022/04/09 09:33:07;;;;;;;9.80;1.13;;;;;;;5.07;100.00;100247.59;10184929;28;20101;-65
2022/04/09 09:38:27;;;;;;;6.30;0.95;;;;;;;5.34;100.00;100246.94;10187038;28;20056;-65
2022/04/09 09:43:26;;;;;;;4.70;0.85;;;;;;;5.76;100.00;100241.69;10189128;28;20410;-66
2022/04/09 09:48:26;;;;;;;4.35;0.80;;;;;;;6.05;100.00;100239.53;10190199;28;20462;-65
2022/04/09 09:53:31;;;;;;;6.03;0.80;;;;;;;6.14;100.00;100244.28;10188007;28;20133;-66
2022/04/09 09:58:28;;;;;;;1.60;0.38;;;;;;;6.27;100.00;100232.66;10187649;28;20081;-66
2022/04/09 10:03:45;;;;;;;4.78;0.57;;;;;;;6.50;100.00;100264.25;10187495;28;20042;-66
2022/04/09 10:08:41;;;;;;;4.90;0.93;;;;;;;6.03;100.00;100287.88;10184972;28;20141;-66
2022/04/09 10:13:43;;;;;;;6.05;1.23;;;;;;;6.51;100.00;100290.28;10188065;28;20050;-66
2022/04/09 10:18:40;;;;;;;7.20;0.73;;;;;;;7.32;100.00;100295.13;10169605;28;20046;-66
2022/04/09 10:23:36;;;;;;;5.78;0.68;;;;;;;7.23;100.00;100307.06;10183870;28;20096;-65
2022/04/09 10:28:38;;;;;;;5.25;0.70;;;;;;;7.69;100.00;100287.75;10179856;28;20146;-66
2022/04/09 10:33:36;;;;;;;5.35;0.70;;;;;;;7.56;100.00;100302.22;10159388;28;20046;-65
2022/04/09 10:38:36;;;;;;;6.40;1.27;;;;;;;7.76;100.00;100298.22;10188579;28;20120;-66
2022/04/09 10:43:39;;;;;;;5.15;0.60;;;;;;;6.65;100.00;100309.31;10186773;28;20046;-65
2022/04/09 10:48:37;;;;;;;9.65;1.45;;;;;;;6.02;100.00;100329.72;10188739;28;20065;-65
2022/04/09 10:53:54;;;;;;;9.20;1.02;;;;;;;5.45;100.00;100364.16;10171983;28;20042;-66
2022/04/09 10:59:16;;;;;;;5.88;1.15;;;;;;;4.68;100.00;100362.38;10186699;28;20144;-65
2022/04/09 11:04:32;;;;;;;4.88;0.60;;;;;;;5.96;100.00;100357.22;10182757;28;20101;-65
2022/04/09 11:09:51;;;;;;;4.32;0.60;;;;;;;7.31;100.00;100341.66;10185724;28;20482;-65
2022/04/09 11:14:59;;;;;;;7.55;1.42;;;;;;;8.41;100.00;100345.94;10183002;28;20038;-65
2022/04/09 11:20:02;;;;;;;7.85;1.20;;;;;;;8.49;100.00;100331.53;10185794;28;20081;-66
2022/04/09 11:24:59;;;;;;;8.93;1.00;;;;;;;9.18;100.00;100327.44;10184643;28;20623;-66
2022/04/09 11:30:00;;;;;;;6.53;0.80;;;;;;;8.06;100.00;100364.75;10187609;28;20045;-66
2022/04/09 11:35:00;;;;;;;7.07;0.93;;;;;;;8.37;100.00;100361.25;10168250;28;20076;-66
2022/04/09 11:39:58;;;;;;;7.95;1.10;;;;;;;9.02;100.00;100366.06;10188031;28;20123;-65
2022/04/09 11:44:54;;;;;;;7.72;1.00;;;;;;;8.07;100.00;100371.78;10185933;28;20601;-65
2022/04/09 11:49:52;;;;;;;5.78;0.93;;;;;;;8.32;100.00;100383.97;10179484;28;20141;-65
2022/04/09 11:54:49;;;;;;;6.93;0.95;;;;;;;8.67;100.00;100394.31;10163800;28;20457;-66
2022/04/09 11:59:53;;;;;;;8.20;1.60;;;;;;;7.48;100.00;100411.78;10175054;28;20143;-65
2022/04/09 12:04:51;;;;;;;7.35;0.98;;;;;;;7.35;100.00;100429.72;10189294;28;20042;-64
2022/04/09 12:09:47;;;;;;;8.25;1.40;;;;;;;8.06;100.00;100432.81;10179303;28;20053;-65
2022/04/09 12:14:55;;;;;;;6.20;1.27;;;;;;;7.18;100.00;100446.63;10188477;28;20114;-66
2022/04/09 12:19:52;;;;;;;18.63;1.80;;;;;;;6.91;100.00;100452.84;10193795;28;20428;-65
2022/04/09 12:24:51;;;;;;;11.07;1.80;;;;;;;7.64;100.00;100443.00;10193010;28;20096;-65
2022/04/09 12:29:53;;;;;;;14.30;2.55;;;;;;;8.26;100.00;100441.59;10193476;28;20175;-65
2022/04/09 12:34:54;;;;;;;14.25;2.42;;;;;;;7.74;100.00;100445.47;10190974;28;20038;-65
2022/04/09 12:39:52;;;;;;;11.48;2.63;;;;;;;7.76;100.00;100462.31;10193667;28;20104;-66
2022/04/09 12:44:48;;;;;;;6.20;1.60;;;;;;;8.47;100.00;100456.41;10180339;28;20038;-65
2022/04/09 12:49:45;;;;;;;15.23;2.10;;;;;;;8.30;100.00;100459.75;10191169;28;20488;-65
2022/04/09 12:54:41;;;;;;;14.07;1.63;;;;;;;8.22;100.00;100453.13;10189565;28;20145;-65
2022/04/09 12:59:38;;;;;;;20.75;3.63;;;;;;;9.38;98.90;100459.75;10177778;28;20089;-65
2022/04/09 13:04:34;;;;;;;13.77;2.25;;;;;;;9.16;100.00;100464.16;10192871;28;20132;-65
2022/04/09 13:09:31;;;;;;;13.95;2.47;;;;;;;9.34;100.00;100491.50;10189030;28;20065;-66
2022/04/09 13:14:28;;;;;;;12.32;1.88;;;;;;;8.79;100.00;100487.22;10189586;28;20053;-66
2022/04/09 13:19:33;;;;;;;11.50;1.67;;;;;;;8.80;100.00;100494.28;10188427;28;20057;-66
2022/04/09 13:24:30;;;;;;;33.72;3.58;;;;;;;9.72;100.00;100502.69;10187683;28;20045;-66
2022/04/09 13:29:26;;;;;;;10.95;2.40;;;;;;;10.46;99.58;100498.31;10176466;28;20129;-69
2022/04/09 13:34:23;;;;;;;16.90;3.67;;;;;;;10.83;87.97;100501.50;10165409;28;20085;-67
2022/04/09 13:39:19;;;;;;;11.85;1.88;;;;;;;10.22;85.51;100488.66;10148943;28;20112;-66
2022/04/09 13:44:31;;;;;;;17.92;3.22;;;;;;;11.21;78.40;100496.09;10161156;28;20115;-66
2022/04/09 13:49:34;;;;;;;12.55;2.95;;;;;;;10.16;66.78;100522.72;10158458;28;20072;-63
2022/04/09 13:54:31;;;;;;;15.10;2.42;;;;;;;8.83;73.64;100535.34;10146591;28;20474;-63
2022/04/09 13:59:28;;;;;;;19.88;2.88;;;;;;;9.01;78.75;100544.47;10159594;28;20046;-63
2022/04/09 14:04:25;;;;;;;15.98;2.55;;;;;;;9.57;67.82;100536.72;10174163;28;20136;-64
2022/04/09 14:09:21;;;;;;;17.00;2.40;;;;;;;10.17;72.94;100546.19;10170522;28;20160;-63
2022/04/09 14:14:18;;;;;;;7.25;1.90;;;;;;;10.41;74.68;100547.69;10163073;28;20868;-64
2022/04/09 14:19:17;;;;;;;13.05;2.40;;;;;;;10.59;67.90;100538.38;10153765;28;20494;-63
2022/04/09 14:24:14;;;;;;;14.23;2.05;;;;;;;11.25;67.22;100540.03;10164379;28;20105;-61
2022/04/09 14:29:10;;;;;;;11.30;2.17;;;;;;;10.65;71.36;100550.75;10152146;28;20141;-64
2022/04/09 14:34:07;;;;;;;9.50;1.95;;;;;;;11.29;58.19;100546.47;10156550;28;20054;-61
2022/04/09 14:39:06;;;;;;;12.38;2.20;;;;;;;10.46;58.54;100558.47;10165160;28;20069;-63
2022/04/09 14:44:03;;;;;;;15.77;2.42;;;;;;;10.15;63.84;100553.91;10149877;28;20100;-63
2022/04/09 14:49:00;;;;;;;9.35;1.88;;;;;;;10.29;58.13;100589.31;10153729;28;20532;-61
2022/04/09 14:53:59;;;;;;;14.77;2.47;;;;;;;10.27;59.83;100584.13;10148659;28;20102;-63
2022/04/09 14:58:58;;;;;;;12.63;2.13;;;;;;;10.12;68.85;100587.34;10143505;28;20140;-64
2022/04/09 15:03:55;;;;;;;9.57;1.77;;;;;;;9.77;81.06;100581.75;10145858;28;20128;-64
2022/04/09 15:08:53;;;;;;;12.75;2.53;;;;;;;10.47;82.49;100609.28;10155206;28;20077;-64
2022/04/09 15:13:49;;;;;;;9.30;1.73;;;;;;;10.40;54.71;100608.97;10168540;28;20073;-63
2022/04/09 15:18:46;;;;;;;10.18;1.88;;;;;;;10.38;51.47;100608.47;10178062;28;20088;-63
2022/04/09 15:23:43;;;;;;;11.55;2.00;;;;;;;10.67;55.02;100597.69;10183668;28;20623;-64
2022/04/09 15:28:39;;;;;;;13.88;2.13;;;;;;;10.76;54.20;100621.53;10181941;28;20553;-64
2022/04/09 15:33:36;;;;;;;11.10;2.05;;;;;;;9.58;57.41;100635.78;10184557;28;20128;-64
2022/04/09 15:38:32;;;;;;;11.88;2.20;;;;;;;8.74;68.67;100642.72;10186688;28;20046;-63
2022/04/09 15:43:29;;;;;;;11.18;1.52;;;;;;;8.17;76.67;100668.41;10183264;28;20129;-63
2022/04/09 15:48:26;;;;;;;4.00;1.00;;;;;;;7.52;95.43;100668.50;10184432;28;20702;-63
2022/04/09 15:53:22;;;;;;;6.47;0.82;;;;;;;8.22;100.00;100665.56;10177301;28;20096;-63
2022/04/09 15:58:19;;;;;;;8.55;1.20;;;;;;;8.54;100.00;100674.78;10185738;28;20042;-63
2022/04/09 16:03:15;;;;;;;12.32;1.90;;;;;;;8.80;100.00;100666.84;10164988;28;20129;-63
2022/04/09 16:08:12;;;;;;;10.50;1.60;;;;;;;8.99;100.00;100672.13;10185675;28;20052;-63
2022/04/09 16:13:08;;;;;;;9.55;1.70;;;;;;;9.06;96.11;100680.69;10168280;28;20078;-64
2022/04/09 16:18:05;;;;;;;6.85;1.42;;;;;;;9.17;91.88;100699.56;10186124;28;20073;-64
2022/04/09 16:23:02;;;;;;;10.93;1.83;;;;;;;9.53;87.33;100679.59;10170649;28;20070;-64
2022/04/09 16:27:58;;;;;;;7.85;1.90;;;;;;;9.59;73.02;100683.81;10183002;28;20084;-63
2022/04/09 16:32:55;;;;;;;8.00;1.60;;;;;;;9.88;73.29;100686.03;10184147;28;20129;-63
2022/04/09 16:37:51;;;;;;;18.25;2.30;;;;;;;10.49;70.64;100684.38;10182118;28;20141;-63
2022/04/09 16:42:48;;;;;;;8.55;1.83;;;;;;;9.05;78.58;100697.34;10185286;28;20073;-63
2022/04/09 16:47:44;;;;;;;11.65;2.40;;;;;;;8.71;84.95;100703.31;10181032;28;20513;-63
2022/04/09 16:52:41;;;;;;;12.38;2.03;;;;;;;7.98;91.57;100708.50;10185203;28;20134;-64
2022/04/09 16:57:39;;;;;;;11.35;1.98;;;;;;;7.85;92.72;100696.50;10181685;28;20137;-63
2022/04/09 17:02:35;;;;;;;12.20;2.60;;;;;;;7.80;92.77;100697.41;10181700;28;20141;-63
2022/04/09 17:07:32;;;;;;;16.73;2.40;;;;;;;7.52;98.27;100706.59;10188627;28;20056;-63
2022/04/09 17:12:29;;;;;;;15.23;2.20;;;;;;;7.44;100.00;100715.44;10191842;28;20136;-63
2022/04/09 17:17:25;;;;;;;15.52;3.72;;;;;;;7.46;100.00;100713.22;10185343;28;20085;-64
2022/04/09 17:22:22;;;;;;;19.50;3.00;;;;;;;7.59;100.00;100707.03;10186234;28;20101;-63
2022/04/09 17:27:18;;;;;;;16.25;1.52;;;;;;;7.42;100.00;100717.66;10185392;28;20128;-63
2022/04/09 17:32:15;;;;;;;11.75;2.38;;;;;;;7.24;100.00;100722.81;10188887;28;20242;-63
2022/04/09 17:37:11;;;;;;;11.15;2.03;;;;;;;7.34;100.00;100717.22;10187237;28;20677;-63
2022/04/09 17:42:09;;;;;;;12.00;1.73;;;;;;;6.82;100.00;100742.69;10188300;28;20101;-63
2022/04/09 17:47:06;;;;;;;13.13;2.53;;;;;;;6.87;100.00;100729.88;10190619;28;20104;-63
2022/04/09 17:52:02;;;;;;;14.57;2.45;;;;;;;6.76;100.00;100750.13;10185671;28;20096;-63
2022/04/09 17:56:59;;;;;;;21.75;3.03;;;;;;;6.50;100.00;100745.00;10190072;28;20136;-63
2022/04/09 18:01:56;;;;;;;14.00;2.70;;;;;;;6.55;100.00;100755.00;10188722;28;20070;-64
2022/04/09 18:06:53;;;;;;;12.93;1.77;;;;;;;6.32;100.00;100770.19;10187918;28;20049;-63
2022/04/09 18:11:49;;;;;;;11.90;2.53;;;;;;;6.20;100.00;100769.78;10189576;28;20258;-64
2022/04/09 18:16:46;;;;;;;15.00;2.88;;;;;;;6.15;100.00;100783.38;10181358;28;20073;-64
2022/04/09 18:21:42;;;;;;;14.50;1.88;;;;;;;5.98;100.00;100776.47;10189993;28;20060;-63
2022/04/09 18:26:39;;;;;;;10.88;1.92;;;;;;;6.04;100.00;100786.22;10187537;28;20077;-63
2022/04/09 18:31:36;;;;;;;8.32;2.00;;;;;;;5.83;100.00;100790.16;10188920;28;20111;-63
2022/04/09 18:36:34;;;;;;;13.40;2.42;;;;;;;5.81;100.00;100804.00;10184962;28;20053;-63
2022/04/09 18:41:31;;;;;;;12.25;3.80;;;;;;;5.85;100.00;100817.84;10175537;28;20132;-63
2022/04/09 18:46:29;;;;;;;19.90;5.05;;;;;;;5.80;100.00;100823.28;10188210;28;20077;-63
2022/04/09 18:51:25;;;;;;;8.63;1.95;;;;;;;5.56;100.00;100839.47;10171042;28;20049;-63
2022/04/09 18:56:25;;;;;;;13.00;1.70;;;;;;;5.39;100.00;100829.00;10187263;28;20069;-63
2022/04/09 19:01:44;;;;;;;11.30;1.90;;;;;;;5.49;100.00;100837.06;10173612;28;20053;-63
2022/04/09 19:06:43;;;;;;;10.32;1.65;;;;;;;5.38;100.00;100843.63;10180205;28;20050;-63
2022/04/09 19:11:40;;;;;;;11.45;1.88;;;;;;;5.49;100.00;100845.19;10181415;28;20053;-64
2022/04/09 19:16:36;;;;;;;11.50;1.77;;;;;;;5.38;100.00;100843.63;10185839;28;20129;-63
2022/04/09 19:21:33;;;;;;;9.38;1.90;;;;;;;5.18;100.00;100867.06;10165704;28;20069;-63
2022/04/09 19:26:31;;;;;;;6.90;1.80;;;;;;;5.22;100.00;100859.16;10157639;28;20178;-64
2022/04/09 19:31:28;;;;;;;11.38;2.88;;;;;;;5.05;100.00;100875.78;10154740;28;20416;-61
2022/04/09 19:36:26;;;;;;;12.18;1.85;;;;;;;5.04;100.00;100879.59;10143574;28;20050;-62
2022/04/09 19:41:23;;;;;;;16.48;2.97;;;;;;;5.16;100.00;100888.19;10163044;28;20049;-63
2022/04/09 19:46:21;;;;;;;18.45;3.17;;;;;;;5.09;100.00;100897.72;10164605;28;20049;-62
2022/04/09 19:51:18;;;;;;;11.77;1.75;;;;;;;4.99;100.00;100899.38;10167752;28;20137;-61
2022/04/09 19:56:15;;;;;;;6.50;1.77;;;;;;;4.99;100.00;100903.97;10144494;28;20473;-63
2022/04/09 20:01:14;;;;;;;6.85;1.70;;;;;;;4.87;100.00;100898.03;10158109;28;20157;-63
2022/04/09 20:06:14;;;;;;;14.93;2.60;;;;;;;4.82;100.00;100896.16;10158571;28;20061;-62
2022/04/09 20:11:11;;;;;;;14.55;1.55;;;;;;;4.83;100.00;100895.91;10137141;28;20070;-61
2022/04/09 20:16:07;;;;;;;11.70;2.47;;;;;;;5.00;100.00;100892.06;10151892;28;20144;-62
2022/04/09 20:21:04;;;;;;;7.47;1.50;;;;;;;4.75;100.00;100931.66;10163663;28;20052;-62
2022/04/09 20:26:01;;;;;;;9.52;1.77;;;;;;;4.18;100.00;100938.19;10167068;28;20042;-61
2022/04/09 20:30:57;;;;;;;8.50;1.40;;;;;;;4.02;100.00;100920.31;10174031;28;20104;-61
2022/04/09 20:35:54;;;;;;;8.25;1.38;;;;;;;3.88;100.00;100915.44;10162805;28;20073;-62
2022/04/09 20:40:56;;;;;;;9.95;2.30;;;;;;;3.64;100.00;100933.22;10170080;28;20097;-61
2022/04/09 20:45:53;;;;;;;12.75;2.05;;;;;;;3.66;100.00;100931.88;10173533;28;20100;-61
2022/04/09 20:50:55;;;;;;;13.32;1.42;;;;;;;3.64;100.00;100919.69;10175301;28;20506;-61
2022/04/09 20:55:54;;;;;;;10.38;2.13;;;;;;;3.48;100.00;100925.06;10160472;28;20410;-61
2022/04/09 21:00:52;;;;;;;10.35;1.70;;;;;;;3.61;100.00;100922.94;10168811;28;20060;-61
2022/04/09 21:05:50;;;;;;;13.15;2.28;;;;;;;3.58;100.00;100927.78;10168495;28;20159;-61
2022/04/09 21:10:47;;;;;;;10.70;2.97;;;;;;;3.55;100.00;100931.03;10185077;28;20576;-61
2022/04/09 21:15:44;;;;;;;11.90;1.98;;;;;;;3.66;100.00;100925.66;10187523;28;20541;-62
2022/04/09 21:20:40;;;;;;;15.55;2.53;;;;;;;3.54;100.00;100940.22;10180595;28;20421;-61
2022/04/09 21:25:37;;;;;;;12.07;1.52;;;;;;;3.61;100.00;100928.34;10170884;28;20476;-60
2022/04/09 21:30:35;;;;;;;8.80;1.42;;;;;;;3.68;100.00;100945.13;10182119;28;20558;-61
2022/04/09 21:35:32;;;;;;;12.80;2.08;;;;;;;3.79;100.00;100973.84;10186949;28;20053;-61
2022/04/09 21:40:28;;;;;;;19.88;3.15;;;;;;;3.71;100.00;100966.22;10192525;28;20141;-61
2022/04/09 21:45:25;;;;;;;10.23;1.55;;;;;;;3.48;100.00;100975.59;10184695;28;20066;-61
2022/04/09 21:50:22;;;;;;;12.10;1.75;;;;;;;3.50;100.00;100965.34;10192308;28;20108;-61
2022/04/09 21:55:19;;;;;;;13.32;1.98;;;;;;;3.48;100.00;100979.13;10189378;28;20125;-62
2022/04/09 22:00:40;;;;;;;12.73;2.70;;;;;;;3.50;100.00;100968.84;10180863;28;20101;-62
2022/04/09 22:05:36;;;;;;;14.80;2.13;;;;;;;3.33;100.00;100966.34;10180910;28;20532;-60
2022/04/09 22:10:36;;;;;;;9.98;2.08;;;;;;;3.31;100.00;100973.09;10190615;28;20762;-60
2022/04/09 22:15:34;;;;;;;17.75;3.28;;;;;;;3.35;100.00;100971.50;10181627;28;20081;-60
2022/04/09 22:20:31;;;;;;;9.90;2.17;;;;;;;3.35;100.00;100974.19;10182232;28;20086;-61
2022/04/09 22:25:28;;;;;;;9.43;1.90;;;;;;;3.37;100.00;100988.28;10168595;28;20073;-61
2022/04/09 22:30:24;;;;;;;12.10;1.85;;;;;;;3.29;100.00;100986.06;10185779;28;20117;-61
2022/04/09 22:35:21;;;;;;;12.52;2.08;;;;;;;3.22;100.00;100996.28;10189177;28;20658;-60
2022/04/09 22:40:17;;;;;;;10.35;1.92;;;;;;;3.27;100.00;100988.19;10157906;28;20142;-60
2022/04/09 22:45:14;;;;;;;9.75;1.80;;;;;;;3.27;100.00;101009.81;10189746;28;20452;-60
2022/04/09 22:50:10;;;;;;;15.43;2.70;;;;;;;3.24;100.00;101010.34;10173779;28;20081;-62